sensor_id;sensor_type;location;lat;lon;timestamp;P1;durP1;ratioP1;P2;durP2;ratioP2
5167;SDS011;2603;48.918;8.980;2023-03-14T00:00:33;1.20;;;0.60;;
5167;SDS011;2603;48.918;8.980;2023-03-14T00:02:59;1.67;;;0.80;;
5167;SDS011;2603;48.918;8.980;2023-03-14T00:05:26;2.23;;;0.80;;
5167;SDS011;2603;48.918;8.980;2023-03-14T00:07:52;4.23;;;0.77;;
5167;SDS011;2603;48.918;8.980;2023-03-14T00:10:20;1.43;;;0.80;;
5167;SDS011;2603;48.918;8.980;2023-03-14T00:12:47;1.30;;;0.70;;
5167;SDS011;2603;48.918;8.980;2023-03-14T00:15:13;2.20;;;1.03;;
5167;SDS011;2603;48.918;8.980;2023-03-14T00:17:42;1.27;;;0.70;;
5167;SDS011;2603;48.918;8.980;2023-03-14T00:20:09;1.60;;;0.60;;
5167;SDS011;2603;48.918;8.980;2023-03-14T00:22:37;1.30;;;0.70;;
5167;SDS011;2603;48.918;8.980;2023-03-14T00:25:05;1.37;;;0.70;;
5167;SDS011;2603;48.918;8.980;2023-03-14T00:27:34;1.57;;;0.83;;
5167;SDS011;2603;48.918;8.980;2023-03-14T00:30:01;3.50;;;1.20;;
5167;SDS011;2603;48.918;8.980;2023-03-14T00:32:28;1.40;;;0.83;;
5167;SDS011;2603;48.918;8.980;2023-03-14T00:34:54;2.03;;;0.80;;
5167;SDS011;2603;48.918;8.980;2023-03-14T00:37:21;2.30;;;0.80;;
5167;SDS011;2603;48.918;8.980;2023-03-14T00:39:48;1.63;;;0.70;;
5167;SDS011;2603;48.918;8.980;2023-03-14T00:42:14;1.90;;;0.87;;
5167;SDS011;2603;48.918;8.980;2023-03-14T00:44:42;1.50;;;0.80;;
5167;SDS011;2603;48.918;8.980;2023-03-14T00:47:09;2.27;;;0.83;;
5167;SDS011;2603;48.918;8.980;2023-03-14T00:49:35;1.40;;;0.73;;
5167;SDS011;2603;48.918;8.980;2023-03-14T00:52:02;1.83;;;1.00;;
5167;SDS011;2603;48.918;8.980;2023-03-14T00:54:29;2.00;;;0.90;;
5167;SDS011;2603;48.918;8.980;2023-03-14T00:56:56;3.57;;;1.37;;
5167;SDS011;2603;48.918;8.980;2023-03-14T00:59:22;3.77;;;0.80;;
5167;SDS011;2603;48.918;8.980;2023-03-14T01:01:50;1.83;;;0.83;;
5167;SDS011;2603;48.918;8.980;2023-03-14T01:04:18;2.00;;;0.90;;
5167;SDS011;2603;48.918;8.980;2023-03-14T01:06:44;1.60;;;0.87;;
5167;SDS011;2603;48.918;8.980;2023-03-14T01:09:11;1.53;;;0.77;;
5167;SDS011;2603;48.918;8.980;2023-03-14T01:11:37;1.93;;;0.70;;
5167;SDS011;2603;48.918;8.980;2023-03-14T01:14:04;2.17;;;0.60;;
5167;SDS011;2603;48.918;8.980;2023-03-14T01:16:31;1.87;;;0.83;;
5167;SDS011;2603;48.918;8.980;2023-03-14T01:19:01;1.33;;;0.70;;
5167;SDS011;2603;48.918;8.980;2023-03-14T01:21:29;2.43;;;0.77;;
5167;SDS011;2603;48.918;8.980;2023-03-14T01:23:57;1.87;;;0.83;;
5167;SDS011;2603;48.918;8.980;2023-03-14T01:26:25;1.50;;;0.93;;
5167;SDS011;2603;48.918;8.980;2023-03-14T01:28:53;1.57;;;0.80;;
5167;SDS011;2603;48.918;8.980;2023-03-14T01:31:21;3.37;;;0.83;;
5167;SDS011;2603;48.918;8.980;2023-03-14T01:33:48;2.17;;;0.90;;
5167;SDS011;2603;48.918;8.980;2023-03-14T01:36:17;1.47;;;0.90;;
5167;SDS011;2603;48.918;8.980;2023-03-14T01:38:45;2.03;;;0.90;;
5167;SDS011;2603;48.918;8.980;2023-03-14T01:41:15;1.97;;;0.83;;
5167;SDS011;2603;48.918;8.980;2023-03-14T01:43:43;3.33;;;1.07;;
5167;SDS011;2603;48.918;8.980;2023-03-14T01:46:24;4.27;;;0.80;;
5167;SDS011;2603;48.918;8.980;2023-03-14T01:48:58;2.00;;;1.00;;
5167;SDS011;2603;48.918;8.980;2023-03-14T01:51:31;2.03;;;0.80;;
5167;SDS011;2603;48.918;8.980;2023-03-14T01:54:03;1.43;;;0.70;;
5167;SDS011;2603;48.918;8.980;2023-03-14T01:56:33;2.23;;;1.00;;
5167;SDS011;2603;48.918;8.980;2023-03-14T01:59:02;1.90;;;0.80;;
5167;SDS011;2603;48.918;8.980;2023-03-14T02:01:30;1.37;;;0.73;;
5167;SDS011;2603;48.918;8.980;2023-03-14T02:03:58;1.20;;;0.70;;
5167;SDS011;2603;48.918;8.980;2023-03-14T02:06:29;1.33;;;0.60;;
5167;SDS011;2603;48.918;8.980;2023-03-14T02:09:00;1.80;;;1.00;;
5167;SDS011;2603;48.918;8.980;2023-03-14T02:11:31;1.43;;;0.70;;
5167;SDS011;2603;48.918;8.980;2023-03-14T02:14:07;4.40;;;1.00;;
5167;SDS011;2603;48.918;8.980;2023-03-14T02:17:14;1.50;;;0.60;;
5167;SDS011;2603;48.918;8.980;2023-03-14T02:20:06;2.60;;;1.00;;
5167;SDS011;2603;48.918;8.980;2023-03-14T02:22:44;4.87;;;1.00;;
5167;SDS011;2603;48.918;8.980;2023-03-14T02:25:12;2.70;;;0.90;;
5167;SDS011;2603;48.918;8.980;2023-03-14T02:27:42;3.43;;;1.17;;
5167;SDS011;2603;48.918;8.980;2023-03-14T02:30:11;1.50;;;0.60;;
5167;SDS011;2603;48.918;8.980;2023-03-14T02:32:43;2.60;;;0.80;;
5167;SDS011;2603;48.918;8.980;2023-03-14T02:35:14;1.43;;;0.80;;
5167;SDS011;2603;48.918;8.980;2023-03-14T02:37:43;3.20;;;1.03;;
5167;SDS011;2603;48.918;8.980;2023-03-14T02:40:12;2.30;;;0.73;;
5167;SDS011;2603;48.918;8.980;2023-03-14T02:42:42;5.13;;;1.03;;
5167;SDS011;2603;48.918;8.980;2023-03-14T02:48:09;1.93;;;0.80;;
5167;SDS011;2603;48.918;8.980;2023-03-14T02:50:40;1.70;;;0.60;;
5167;SDS011;2603;48.918;8.980;2023-03-14T02:53:07;3.60;;;0.80;;
5167;SDS011;2603;48.918;8.980;2023-03-14T02:55:34;3.20;;;0.63;;
5167;SDS011;2603;48.918;8.980;2023-03-14T02:58:08;1.87;;;0.60;;
5167;SDS011;2603;48.918;8.980;2023-03-14T03:00:35;2.33;;;0.70;;
5167;SDS011;2603;48.918;8.980;2023-03-14T03:03:03;6.63;;;1.20;;
5167;SDS011;2603;48.918;8.980;2023-03-14T03:05:31;1.73;;;0.80;;
5167;SDS011;2603;48.918;8.980;2023-03-14T03:07:58;1.60;;;0.70;;
5167;SDS011;2603;48.918;8.980;2023-03-14T03:10:25;1.70;;;0.60;;
5167;SDS011;2603;48.918;8.980;2023-03-14T03:12:52;3.27;;;0.80;;
5167;SDS011;2603;48.918;8.980;2023-03-14T03:15:23;2.97;;;0.90;;
5167;SDS011;2603;48.918;8.980;2023-03-14T03:17:50;2.83;;;0.80;;
5167;SDS011;2603;48.918;8.980;2023-03-14T03:20:16;3.50;;;1.10;;
5167;SDS011;2603;48.918;8.980;2023-03-14T03:22:43;2.70;;;0.60;;
5167;SDS011;2603;48.918;8.980;2023-03-14T03:25:10;2.10;;;1.10;;
5167;SDS011;2603;48.918;8.980;2023-03-14T03:27:36;4.40;;;1.00;;
5167;SDS011;2603;48.918;8.980;2023-03-14T03:30:05;6.80;;;2.30;;
5167;SDS011;2603;48.918;8.980;2023-03-14T03:32:34;4.37;;;1.80;;
5167;SDS011;2603;48.918;8.980;2023-03-14T03:35:01;2.67;;;0.80;;
5167;SDS011;2603;48.918;8.980;2023-03-14T03:37:29;2.13;;;0.90;;
5167;SDS011;2603;48.918;8.980;2023-03-14T03:39:56;2.00;;;0.73;;
5167;SDS011;2603;48.918;8.980;2023-03-14T03:42:23;2.40;;;0.70;;
5167;SDS011;2603;48.918;8.980;2023-03-14T03:44:50;4.20;;;1.13;;
5167;SDS011;2603;48.918;8.980;2023-03-14T03:47:16;1.37;;;0.77;;
5167;SDS011;2603;48.918;8.980;2023-03-14T03:49:45;2.50;;;0.93;;
5167;SDS011;2603;48.918;8.980;2023-03-14T03:52:11;2.30;;;0.70;;
5167;SDS011;2603;48.918;8.980;2023-03-14T03:54:37;4.80;;;0.90;;
5167;SDS011;2603;48.918;8.980;2023-03-14T03:57:05;2.93;;;1.53;;
5167;SDS011;2603;48.918;8.980;2023-03-14T03:59:33;5.47;;;1.27;;
5167;SDS011;2603;48.918;8.980;2023-03-14T04:01:59;4.13;;;1.00;;
5167;SDS011;2603;48.918;8.980;2023-03-14T04:04:26;2.30;;;0.80;;
5167;SDS011;2603;48.918;8.980;2023-03-14T04:06:54;3.30;;;1.20;;
5167;SDS011;2603;48.918;8.980;2023-03-14T04:09:21;7.10;;;1.43;;
5167;SDS011;2603;48.918;8.980;2023-03-14T04:12:04;4.60;;;1.03;;
5167;SDS011;2603;48.918;8.980;2023-03-14T04:14:40;2.63;;;0.90;;
5167;SDS011;2603;48.918;8.980;2023-03-14T04:17:13;2.50;;;0.70;;
5167;SDS011;2603;48.918;8.980;2023-03-14T04:19:39;3.67;;;1.20;;
5167;SDS011;2603;48.918;8.980;2023-03-14T04:22:08;3.10;;;0.90;;
5167;SDS011;2603;48.918;8.980;2023-03-14T04:24:44;5.73;;;1.13;;
5167;SDS011;2603;48.918;8.980;2023-03-14T04:27:10;10.20;;;0.83;;
5167;SDS011;2603;48.918;8.980;2023-03-14T04:29:37;2.57;;;0.90;;
5167;SDS011;2603;48.918;8.980;2023-03-14T04:32:04;5.83;;;1.20;;
5167;SDS011;2603;48.918;8.980;2023-03-14T04:34:31;5.70;;;1.23;;
5167;SDS011;2603;48.918;8.980;2023-03-14T04:36:58;4.80;;;0.97;;
5167;SDS011;2603;48.918;8.980;2023-03-14T04:39:32;7.53;;;1.10;;
5167;SDS011;2603;48.918;8.980;2023-03-14T04:42:07;5.60;;;1.00;;
5167;SDS011;2603;48.918;8.980;2023-03-14T04:44:36;6.70;;;0.87;;
5167;SDS011;2603;48.918;8.980;2023-03-14T04:47:02;2.10;;;0.73;;
5167;SDS011;2603;48.918;8.980;2023-03-14T04:49:30;4.47;;;0.90;;
5167;SDS011;2603;48.918;8.980;2023-03-14T04:51:57;3.23;;;0.80;;
5167;SDS011;2603;48.918;8.980;2023-03-14T04:54:26;3.10;;;0.97;;
5167;SDS011;2603;48.918;8.980;2023-03-14T04:56:57;2.63;;;1.10;;
5167;SDS011;2603;48.918;8.980;2023-03-14T04:59:26;4.50;;;1.00;;
5167;SDS011;2603;48.918;8.980;2023-03-14T05:01:58;4.57;;;0.80;;
5167;SDS011;2603;48.918;8.980;2023-03-14T05:04:52;2.80;;;0.93;;
5167;SDS011;2603;48.918;8.980;2023-03-14T05:07:33;5.27;;;1.43;;
5167;SDS011;2603;48.918;8.980;2023-03-14T05:10:12;3.83;;;1.20;;
5167;SDS011;2603;48.918;8.980;2023-03-14T05:12:59;4.10;;;0.93;;
5167;SDS011;2603;48.918;8.980;2023-03-14T05:15:47;2.47;;;1.30;;
5167;SDS011;2603;48.918;8.980;2023-03-14T05:18:37;6.03;;;1.00;;
5167;SDS011;2603;48.918;8.980;2023-03-14T05:21:12;11.63;;;1.63;;
5167;SDS011;2603;48.918;8.980;2023-03-14T05:23:48;2.50;;;0.90;;
5167;SDS011;2603;48.918;8.980;2023-03-14T05:26:31;4.43;;;1.00;;
5167;SDS011;2603;48.918;8.980;2023-03-14T05:29:17;3.80;;;1.20;;
5167;SDS011;2603;48.918;8.980;2023-03-14T05:31:56;5.80;;;1.30;;
5167;SDS011;2603;48.918;8.980;2023-03-14T05:34:30;5.90;;;1.10;;
5167;SDS011;2603;48.918;8.980;2023-03-14T05:37:20;3.60;;;1.00;;
5167;SDS011;2603;48.918;8.980;2023-03-14T05:40:06;5.57;;;1.33;;
5167;SDS011;2603;48.918;8.980;2023-03-14T05:42:44;6.83;;;1.63;;
5167;SDS011;2603;48.918;8.980;2023-03-14T05:45:32;6.37;;;1.40;;
5167;SDS011;2603;48.918;8.980;2023-03-14T05:48:15;3.77;;;0.80;;
5167;SDS011;2603;48.918;8.980;2023-03-14T05:50:54;3.53;;;1.27;;
5167;SDS011;2603;48.918;8.980;2023-03-14T05:53:43;2.67;;;1.10;;
5167;SDS011;2603;48.918;8.980;2023-03-14T05:56:29;3.10;;;1.00;;
5167;SDS011;2603;48.918;8.980;2023-03-14T05:59:12;13.27;;;8.50;;
5167;SDS011;2603;48.918;8.980;2023-03-14T06:02:03;3.27;;;1.13;;
5167;SDS011;2603;48.918;8.980;2023-03-14T06:04:41;8.70;;;3.90;;
5167;SDS011;2603;48.918;8.980;2023-03-14T06:07:08;230.17;;;108.87;;
5167;SDS011;2603;48.918;8.980;2023-03-14T06:09:34;191.70;;;86.57;;
5167;SDS011;2603;48.918;8.980;2023-03-14T06:12:01;89.10;;;37.90;;
5167;SDS011;2603;48.918;8.980;2023-03-14T06:14:34;22.43;;;10.40;;
5167;SDS011;2603;48.918;8.980;2023-03-14T06:17:00;5.63;;;3.20;;
5167;SDS011;2603;48.918;8.980;2023-03-14T06:19:33;7.83;;;1.67;;
5167;SDS011;2603;48.918;8.980;2023-03-14T06:21:59;5.30;;;1.17;;
5167;SDS011;2603;48.918;8.980;2023-03-14T06:24:26;4.80;;;1.40;;
5167;SDS011;2603;48.918;8.980;2023-03-14T06:26:53;3.67;;;1.70;;
5167;SDS011;2603;48.918;8.980;2023-03-14T06:29:19;4.67;;;1.47;;
5167;SDS011;2603;48.918;8.980;2023-03-14T06:31:46;3.90;;;1.20;;
5167;SDS011;2603;48.918;8.980;2023-03-14T06:34:15;3.10;;;0.80;;
5167;SDS011;2603;48.918;8.980;2023-03-14T06:36:43;4.93;;;1.33;;
5167;SDS011;2603;48.918;8.980;2023-03-14T06:39:10;8.97;;;1.70;;
5167;SDS011;2603;48.918;8.980;2023-03-14T06:41:41;3.87;;;1.10;;
5167;SDS011;2603;48.918;8.980;2023-03-14T06:44:09;6.73;;;2.80;;
5167;SDS011;2603;48.918;8.980;2023-03-14T06:46:36;6.87;;;3.30;;
5167;SDS011;2603;48.918;8.980;2023-03-14T06:49:03;7.43;;;1.40;;
5167;SDS011;2603;48.918;8.980;2023-03-14T06:51:31;5.17;;;2.83;;
5167;SDS011;2603;48.918;8.980;2023-03-14T06:54:02;3.07;;;1.63;;
5167;SDS011;2603;48.918;8.980;2023-03-14T06:56:29;3.33;;;1.30;;
5167;SDS011;2603;48.918;8.980;2023-03-14T06:58:56;5.57;;;1.43;;
5167;SDS011;2603;48.918;8.980;2023-03-14T07:01:25;5.43;;;2.00;;
5167;SDS011;2603;48.918;8.980;2023-03-14T07:04:02;2.83;;;0.77;;
5167;SDS011;2603;48.918;8.980;2023-03-14T07:06:29;2.30;;;1.00;;
5167;SDS011;2603;48.918;8.980;2023-03-14T07:08:55;2.30;;;0.80;;
5167;SDS011;2603;48.918;8.980;2023-03-14T07:11:23;3.87;;;0.90;;
5167;SDS011;2603;48.918;8.980;2023-03-14T07:13:50;2.47;;;0.80;;
5167;SDS011;2603;48.918;8.980;2023-03-14T07:16:17;2.93;;;1.10;;
5167;SDS011;2603;48.918;8.980;2023-03-14T07:18:44;3.27;;;1.23;;
5167;SDS011;2603;48.918;8.980;2023-03-14T07:21:10;3.10;;;1.20;;
5167;SDS011;2603;48.918;8.980;2023-03-14T07:23:37;2.80;;;0.67;;
5167;SDS011;2603;48.918;8.980;2023-03-14T07:26:05;2.90;;;0.90;;
5167;SDS011;2603;48.918;8.980;2023-03-14T07:28:35;1.97;;;0.97;;
5167;SDS011;2603;48.918;8.980;2023-03-14T07:31:08;2.30;;;1.20;;
5167;SDS011;2603;48.918;8.980;2023-03-14T07:33:36;2.10;;;1.00;;
5167;SDS011;2603;48.918;8.980;2023-03-14T07:36:03;1.63;;;0.60;;
5167;SDS011;2603;48.918;8.980;2023-03-14T07:38:30;2.43;;;0.70;;
5167;SDS011;2603;48.918;8.980;2023-03-14T07:41:19;1.87;;;0.83;;
5167;SDS011;2603;48.918;8.980;2023-03-14T07:44:07;2.20;;;0.83;;
5167;SDS011;2603;48.918;8.980;2023-03-14T07:46:34;4.00;;;1.17;;
5167;SDS011;2603;48.918;8.980;2023-03-14T07:49:00;2.50;;;0.90;;
5167;SDS011;2603;48.918;8.980;2023-03-14T07:51:27;3.33;;;0.70;;
5167;SDS011;2603;48.918;8.980;2023-03-14T07:53:53;1.40;;;0.77;;
5167;SDS011;2603;48.918;8.980;2023-03-14T07:56:20;1.67;;;0.70;;
5167;SDS011;2603;48.918;8.980;2023-03-14T07:58:46;2.07;;;0.70;;
5167;SDS011;2603;48.918;8.980;2023-03-14T08:01:14;3.70;;;0.80;;
5167;SDS011;2603;48.918;8.980;2023-03-14T08:03:41;1.20;;;0.60;;
5167;SDS011;2603;48.918;8.980;2023-03-14T08:06:07;1.10;;;0.40;;
5167;SDS011;2603;48.918;8.980;2023-03-14T08:08:34;1.10;;;0.50;;
5167;SDS011;2603;48.918;8.980;2023-03-14T08:11:03;1.10;;;0.47;;
5167;SDS011;2603;48.918;8.980;2023-03-14T08:13:30;2.33;;;0.70;;
5167;SDS011;2603;48.918;8.980;2023-03-14T08:15:57;1.23;;;0.50;;
5167;SDS011;2603;48.918;8.980;2023-03-14T08:18:25;1.30;;;0.70;;
5167;SDS011;2603;48.918;8.980;2023-03-14T08:20:51;1.27;;;0.50;;
5167;SDS011;2603;48.918;8.980;2023-03-14T08:23:18;1.10;;;0.60;;
5167;SDS011;2603;48.918;8.980;2023-03-14T08:25:44;1.87;;;0.50;;
5167;SDS011;2603;48.918;8.980;2023-03-14T08:28:11;1.67;;;0.53;;
5167;SDS011;2603;48.918;8.980;2023-03-14T08:30:37;1.97;;;0.60;;
5167;SDS011;2603;48.918;8.980;2023-03-14T08:33:04;1.00;;;0.50;;
5167;SDS011;2603;48.918;8.980;2023-03-14T08:35:32;1.20;;;0.47;;
5167;SDS011;2603;48.918;8.980;2023-03-14T08:37:58;1.80;;;0.50;;
5167;SDS011;2603;48.918;8.980;2023-03-14T08:40:25;3.57;;;0.60;;
5167;SDS011;2603;48.918;8.980;2023-03-14T08:42:51;1.10;;;0.50;;
5167;SDS011;2603;48.918;8.980;2023-03-14T08:45:18;2.37;;;0.40;;
5167;SDS011;2603;48.918;8.980;2023-03-14T08:47:45;1.30;;;0.50;;
5167;SDS011;2603;48.918;8.980;2023-03-14T08:50:11;1.10;;;0.57;;
5167;SDS011;2603;48.918;8.980;2023-03-14T08:52:40;1.43;;;0.50;;
5167;SDS011;2603;48.918;8.980;2023-03-14T08:55:07;2.93;;;0.60;;
5167;SDS011;2603;48.918;8.980;2023-03-14T08:57:34;1.10;;;0.50;;
5167;SDS011;2603;48.918;8.980;2023-03-14T09:00:02;1.37;;;0.60;;
5167;SDS011;2603;48.918;8.980;2023-03-14T09:02:33;1.50;;;0.77;;
5167;SDS011;2603;48.918;8.980;2023-03-14T09:05:00;5.83;;;0.80;;
5167;SDS011;2603;48.918;8.980;2023-03-14T09:07:27;2.80;;;0.80;;
5167;SDS011;2603;48.918;8.980;2023-03-14T09:09:55;1.40;;;0.47;;
5167;SDS011;2603;48.918;8.980;2023-03-14T09:12:21;1.10;;;0.50;;
5167;SDS011;2603;48.918;8.980;2023-03-14T09:14:48;1.80;;;0.60;;
5167;SDS011;2603;48.918;8.980;2023-03-14T09:17:14;1.17;;;0.60;;
5167;SDS011;2603;48.918;8.980;2023-03-14T09:19:40;1.37;;;0.77;;
5167;SDS011;2603;48.918;8.980;2023-03-14T09:22:07;1.10;;;0.60;;
5167;SDS011;2603;48.918;8.980;2023-03-14T09:24:33;3.00;;;0.70;;
5167;SDS011;2603;48.918;8.980;2023-03-14T09:27:01;2.03;;;0.83;;
5167;SDS011;2603;48.918;8.980;2023-03-14T09:29:29;1.87;;;0.77;;
5167;SDS011;2603;48.918;8.980;2023-03-14T09:31:55;2.70;;;0.70;;
5167;SDS011;2603;48.918;8.980;2023-03-14T09:34:24;2.20;;;0.77;;
5167;SDS011;2603;48.918;8.980;2023-03-14T09:36:50;2.83;;;0.83;;
5167;SDS011;2603;48.918;8.980;2023-03-14T09:39:17;3.00;;;0.80;;
5167;SDS011;2603;48.918;8.980;2023-03-14T09:41:44;2.77;;;1.00;;
5167;SDS011;2603;48.918;8.980;2023-03-14T09:44:14;3.10;;;0.90;;
5167;SDS011;2603;48.918;8.980;2023-03-14T09:46:42;1.30;;;0.70;;
5167;SDS011;2603;48.918;8.980;2023-03-14T09:49:14;4.50;;;0.70;;
5167;SDS011;2603;48.918;8.980;2023-03-14T09:51:45;1.73;;;0.57;;
5167;SDS011;2603;48.918;8.980;2023-03-14T09:54:17;1.00;;;0.40;;
5167;SDS011;2603;48.918;8.980;2023-03-14T09:56:50;1.37;;;0.80;;
5167;SDS011;2603;48.918;8.980;2023-03-14T09:59:18;2.57;;;0.70;;
5167;SDS011;2603;48.918;8.980;2023-03-14T10:01:45;1.40;;;0.67;;
5167;SDS011;2603;48.918;8.980;2023-03-14T10:04:12;1.87;;;0.60;;
5167;SDS011;2603;48.918;8.980;2023-03-14T10:06:41;1.40;;;0.50;;
5167;SDS011;2603;48.918;8.980;2023-03-14T10:09:08;1.30;;;0.60;;
5167;SDS011;2603;48.918;8.980;2023-03-14T10:11:38;1.17;;;0.50;;
5167;SDS011;2603;48.918;8.980;2023-03-14T10:14:06;1.43;;;0.50;;
5167;SDS011;2603;48.918;8.980;2023-03-14T10:16:35;1.77;;;0.60;;
5167;SDS011;2603;48.918;8.980;2023-03-14T10:19:03;2.03;;;0.50;;
5167;SDS011;2603;48.918;8.980;2023-03-14T10:21:35;1.23;;;0.50;;
5167;SDS011;2603;48.918;8.980;2023-03-14T10:24:10;1.03;;;0.40;;
5167;SDS011;2603;48.918;8.980;2023-03-14T10:26:47;1.00;;;0.50;;
5167;SDS011;2603;48.918;8.980;2023-03-14T10:29:14;0.90;;;0.40;;
5167;SDS011;2603;48.918;8.980;2023-03-14T10:31:50;1.20;;;0.57;;
5167;SDS011;2603;48.918;8.980;2023-03-14T10:34:21;1.70;;;0.50;;
5167;SDS011;2603;48.918;8.980;2023-03-14T10:36:52;1.97;;;0.70;;
5167;SDS011;2603;48.918;8.980;2023-03-14T10:39:27;2.53;;;0.50;;
5167;SDS011;2603;48.918;8.980;2023-03-14T10:42:01;3.53;;;0.50;;
5167;SDS011;2603;48.918;8.980;2023-03-14T10:44:30;0.97;;;0.47;;
5167;SDS011;2603;48.918;8.980;2023-03-14T10:46:58;1.20;;;0.50;;
5167;SDS011;2603;48.918;8.980;2023-03-14T10:49:27;1.20;;;0.80;;
5167;SDS011;2603;48.918;8.980;2023-03-14T10:51:54;1.70;;;0.60;;
5167;SDS011;2603;48.918;8.980;2023-03-14T10:54:21;2.87;;;0.80;;
5167;SDS011;2603;48.918;8.980;2023-03-14T10:56:56;1.67;;;0.60;;
5167;SDS011;2603;48.918;8.980;2023-03-14T10:59:23;1.00;;;0.50;;
5167;SDS011;2603;48.918;8.980;2023-03-14T11:01:51;1.70;;;0.70;;
5167;SDS011;2603;48.918;8.980;2023-03-14T11:04:28;1.43;;;0.77;;
5167;SDS011;2603;48.918;8.980;2023-03-14T11:07:07;1.37;;;0.67;;
5167;SDS011;2603;48.918;8.980;2023-03-14T11:09:38;2.33;;;0.80;;
5167;SDS011;2603;48.918;8.980;2023-03-14T11:12:13;1.10;;;0.50;;
5167;SDS011;2603;48.918;8.980;2023-03-14T11:14:46;1.00;;;0.50;;
5167;SDS011;2603;48.918;8.980;2023-03-14T11:17:15;2.07;;;0.50;;
5167;SDS011;2603;48.918;8.980;2023-03-14T11:19:53;1.10;;;0.50;;
5167;SDS011;2603;48.918;8.980;2023-03-14T11:22:39;1.00;;;0.40;;
5167;SDS011;2603;48.918;8.980;2023-03-14T11:25:12;1.30;;;0.50;;
5167;SDS011;2603;48.918;8.980;2023-03-14T11:27:43;1.47;;;0.70;;
5167;SDS011;2603;48.918;8.980;2023-03-14T11:30:16;2.03;;;0.80;;
5167;SDS011;2603;48.918;8.980;2023-03-14T11:32:45;1.80;;;0.87;;
5167;SDS011;2603;48.918;8.980;2023-03-14T11:35:19;1.00;;;0.50;;
5167;SDS011;2603;48.918;8.980;2023-03-14T11:37:52;1.27;;;0.63;;
5167;SDS011;2603;48.918;8.980;2023-03-14T11:40:20;1.10;;;0.60;;
5167;SDS011;2603;48.918;8.980;2023-03-14T11:42:48;1.20;;;0.70;;
5167;SDS011;2603;48.918;8.980;2023-03-14T11:45:20;1.30;;;0.80;;
5167;SDS011;2603;48.918;8.980;2023-03-14T11:47:52;1.30;;;0.60;;
5167;SDS011;2603;48.918;8.980;2023-03-14T11:50:22;1.00;;;0.50;;
5167;SDS011;2603;48.918;8.980;2023-03-14T11:52:50;1.20;;;0.60;;
5167;SDS011;2603;48.918;8.980;2023-03-14T11:55:21;1.20;;;0.60;;
5167;SDS011;2603;48.918;8.980;2023-03-14T11:57:51;1.10;;;0.60;;
5167;SDS011;2603;48.918;8.980;2023-03-14T12:00:19;1.40;;;0.50;;
5167;SDS011;2603;48.918;8.980;2023-03-14T12:02:48;1.10;;;0.60;;
5167;SDS011;2603;48.918;8.980;2023-03-14T12:08:25;1.30;;;0.60;;
5167;SDS011;2603;48.918;8.980;2023-03-14T12:10:59;1.20;;;0.60;;
5167;SDS011;2603;48.918;8.980;2023-03-14T12:13:28;1.70;;;0.70;;
5167;SDS011;2603;48.918;8.980;2023-03-14T12:15:56;1.00;;;0.50;;
5167;SDS011;2603;48.918;8.980;2023-03-14T12:18:26;1.20;;;0.60;;
5167;SDS011;2603;48.918;8.980;2023-03-14T12:20:55;1.00;;;0.60;;
5167;SDS011;2603;48.918;8.980;2023-03-14T12:23:23;3.90;;;0.80;;
5167;SDS011;2603;48.918;8.980;2023-03-14T12:26:05;5.50;;;0.90;;
5167;SDS011;2603;48.918;8.980;2023-03-14T12:28:33;1.30;;;0.73;;
5167;SDS011;2603;48.918;8.980;2023-03-14T12:34:02;1.40;;;0.80;;
5167;SDS011;2603;48.918;8.980;2023-03-14T12:39:20;2.40;;;1.07;;
5167;SDS011;2603;48.918;8.980;2023-03-14T12:41:51;2.40;;;1.20;;
5167;SDS011;2603;48.918;8.980;2023-03-14T12:50:11;3.60;;;1.27;;
5167;SDS011;2603;48.918;8.980;2023-03-14T12:52:43;4.70;;;1.47;;
5167;SDS011;2603;48.918;8.980;2023-03-14T12:55:18;2.60;;;0.87;;
5167;SDS011;2603;48.918;8.980;2023-03-14T12:57:49;1.97;;;1.03;;
5167;SDS011;2603;48.918;8.980;2023-03-14T13:00:22;3.53;;;1.07;;
5167;SDS011;2603;48.918;8.980;2023-03-14T13:02:49;3.80;;;0.93;;
5167;SDS011;2603;48.918;8.980;2023-03-14T13:05:17;3.00;;;1.40;;
5167;SDS011;2603;48.918;8.980;2023-03-14T13:08:06;1.40;;;0.70;;
5167;SDS011;2603;48.918;8.980;2023-03-14T13:10:38;2.07;;;0.80;;
5167;SDS011;2603;48.918;8.980;2023-03-14T13:13:11;1.30;;;0.60;;
5167;SDS011;2603;48.918;8.980;2023-03-14T13:15:42;3.67;;;1.00;;
5167;SDS011;2603;48.918;8.980;2023-03-14T13:18:10;2.73;;;0.80;;
5167;SDS011;2603;48.918;8.980;2023-03-14T13:20:40;2.20;;;0.80;;
5167;SDS011;2603;48.918;8.980;2023-03-14T13:23:20;2.07;;;0.77;;
5167;SDS011;2603;48.918;8.980;2023-03-14T13:25:47;1.47;;;0.70;;
5167;SDS011;2603;48.918;8.980;2023-03-14T13:28:14;2.27;;;0.90;;
5167;SDS011;2603;48.918;8.980;2023-03-14T13:30:42;5.30;;;0.90;;
5167;SDS011;2603;48.918;8.980;2023-03-14T13:33:13;5.03;;;0.80;;
5167;SDS011;2603;48.918;8.980;2023-03-14T13:35:41;1.20;;;0.60;;
5167;SDS011;2603;48.918;8.980;2023-03-14T13:38:18;1.50;;;0.73;;
5167;SDS011;2603;48.918;8.980;2023-03-14T13:40:49;4.27;;;0.90;;
5167;SDS011;2603;48.918;8.980;2023-03-14T13:43:17;1.63;;;0.80;;
5167;SDS011;2603;48.918;8.980;2023-03-14T13:45:49;2.00;;;0.80;;
5167;SDS011;2603;48.918;8.980;2023-03-14T13:48:17;0.97;;;0.53;;
5167;SDS011;2603;48.918;8.980;2023-03-14T13:50:44;2.40;;;0.90;;
5167;SDS011;2603;48.918;8.980;2023-03-14T13:53:12;1.33;;;0.70;;
5167;SDS011;2603;48.918;8.980;2023-03-14T13:55:40;5.60;;;0.93;;
5167;SDS011;2603;48.918;8.980;2023-03-14T13:58:11;1.33;;;0.80;;
5167;SDS011;2603;48.918;8.980;2023-03-14T14:00:39;3.27;;;0.90;;
5167;SDS011;2603;48.918;8.980;2023-03-14T14:03:08;1.27;;;0.70;;
5167;SDS011;2603;48.918;8.980;2023-03-14T14:05:36;2.27;;;0.80;;
5167;SDS011;2603;48.918;8.980;2023-03-14T14:08:05;3.07;;;0.67;;
5167;SDS011;2603;48.918;8.980;2023-03-14T14:10:32;1.60;;;0.70;;
5167;SDS011;2603;48.918;8.980;2023-03-14T14:13:00;1.70;;;0.80;;
5167;SDS011;2603;48.918;8.980;2023-03-14T14:15:29;1.53;;;0.70;;
5167;SDS011;2603;48.918;8.980;2023-03-14T14:17:58;2.40;;;1.00;;
5167;SDS011;2603;48.918;8.980;2023-03-14T14:20:27;2.60;;;0.90;;
5167;SDS011;2603;48.918;8.980;2023-03-14T14:22:59;3.73;;;1.00;;
5167;SDS011;2603;48.918;8.980;2023-03-14T14:25:28;4.77;;;1.37;;
5167;SDS011;2603;48.918;8.980;2023-03-14T14:27:55;6.37;;;1.00;;
5167;SDS011;2603;48.918;8.980;2023-03-14T14:30:27;1.70;;;0.87;;
5167;SDS011;2603;48.918;8.980;2023-03-14T14:33:09;3.10;;;1.07;;
5167;SDS011;2603;48.918;8.980;2023-03-14T14:35:38;2.60;;;0.97;;
5167;SDS011;2603;48.918;8.980;2023-03-14T14:38:09;6.33;;;0.93;;
5167;SDS011;2603;48.918;8.980;2023-03-14T14:40:42;6.50;;;1.47;;
5167;SDS011;2603;48.918;8.980;2023-03-14T14:43:10;2.00;;;0.80;;
5167;SDS011;2603;48.918;8.980;2023-03-14T14:45:43;1.70;;;1.00;;
5167;SDS011;2603;48.918;8.980;2023-03-14T14:48:11;2.07;;;0.90;;
5167;SDS011;2603;48.918;8.980;2023-03-14T14:50:39;3.67;;;0.97;;
5167;SDS011;2603;48.918;8.980;2023-03-14T14:53:20;4.50;;;1.00;;
5167;SDS011;2603;48.918;8.980;2023-03-14T14:55:50;5.50;;;1.20;;
5167;SDS011;2603;48.918;8.980;2023-03-14T14:58:18;3.13;;;1.37;;
5167;SDS011;2603;48.918;8.980;2023-03-14T15:00:53;2.20;;;1.07;;
5167;SDS011;2603;48.918;8.980;2023-03-14T15:03:23;4.77;;;1.50;;
5167;SDS011;2603;48.918;8.980;2023-03-14T15:05:52;5.57;;;1.90;;
5167;SDS011;2603;48.918;8.980;2023-03-14T15:08:20;3.90;;;1.43;;
5167;SDS011;2603;48.918;8.980;2023-03-14T15:10:46;4.57;;;1.60;;
5167;SDS011;2603;48.918;8.980;2023-03-14T15:13:13;12.30;;;4.03;;
5167;SDS011;2603;48.918;8.980;2023-03-14T15:15:40;7.00;;;3.37;;
5167;SDS011;2603;48.918;8.980;2023-03-14T15:18:11;4.13;;;2.00;;
5167;SDS011;2603;48.918;8.980;2023-03-14T15:20:39;4.10;;;1.20;;
5167;SDS011;2603;48.918;8.980;2023-03-14T15:23:09;5.27;;;1.43;;
5167;SDS011;2603;48.918;8.980;2023-03-14T15:25:36;5.00;;;1.37;;
5167;SDS011;2603;48.918;8.980;2023-03-14T15:28:04;3.87;;;0.97;;
5167;SDS011;2603;48.918;8.980;2023-03-14T15:30:37;9.20;;;1.40;;
5167;SDS011;2603;48.918;8.980;2023-03-14T15:33:03;6.03;;;1.20;;
5167;SDS011;2603;48.918;8.980;2023-03-14T15:35:35;2.20;;;0.90;;
5167;SDS011;2603;48.918;8.980;2023-03-14T15:38:02;4.97;;;1.33;;
5167;SDS011;2603;48.918;8.980;2023-03-14T15:40:29;5.37;;;1.47;;
5167;SDS011;2603;48.918;8.980;2023-03-14T15:42:55;1.83;;;0.73;;
5167;SDS011;2603;48.918;8.980;2023-03-14T15:45:22;7.27;;;1.33;;
5167;SDS011;2603;48.918;8.980;2023-03-14T15:47:48;2.70;;;1.13;;
5167;SDS011;2603;48.918;8.980;2023-03-14T15:50:15;9.20;;;1.17;;